Sumisemaru No.5 — JE3162 — position and weather

sailwx.info

Track history (hours):
 
Tides and Currents Weather Stations Pressure Air Temp Water Temp Dewpoint Dewpoint Depression Visibility Wind Speed Wind Dir Waves Ship Positions

Sumisemaru No.5

Last reported at 2016-Feb-06 21:23 UTC. Time now 2016-Feb-08 04:02 UTC.
Position N 34°55' E 140°10'.

Length 96 m; draft 6 m.

Type: Cargo ship. MMSI: 431700423.

Date/timePositionNaut miles runAvg speedWind from/ knotsBaromVisibWave heightAir tempDewpointWater temp
2016-Feb-06 21:23N 34°55' E 140°10'  
2016-Feb-02 14:08N 35°09' E 139°45'713.1
2016-Feb-02 13:33N 35°16' E 139°45'1312.6
2016-Feb-02 12:33N 35°28' E 139°40'1 0.7
2016-Feb-02 11:33N 35°29' E 139°40'0 0.0
2016-Feb-02 10:33N 35°29' E 139°40'0 0.0
2016-Feb-02 09:33N 35°29' E 139°40'0 0.0
2016-Feb-02 08:33N 35°29' E 139°40'1 1.0
2016-Feb-02 07:33N 35°28' E 139°40'2 2.4
2016-Feb-02 06:33N 35°26' E 139°41'0 0.0
2016-Feb-02 05:33N 35°26' E 139°41'0 0.0
2016-Feb-02 04:33N 35°26' E 139°41'0 0.0
2016-Feb-02 03:33N 35°26' E 139°41'0 0.0
2016-Feb-02 02:33N 35°26' E 139°41'0 0.0
2016-Feb-02 01:33N 35°26' E 139°41'0 0.0
2016-Feb-02 00:33N 35°26' E 139°41'0 0.0
2016-Feb-01 23:33N 35°26' E 139°41'1 0.8
2016-Feb-01 22:33N 35°25' E 139°42'5 5.0
2016-Feb-01 21:33N 35°20' E 139°43'36 7.0
2016-Feb-01 16:24N 34°52' E 140°10'  
Track history (hours):
 
Tides and Currents Weather Stations Pressure Air Temp Water Temp Dewpoint Dewpoint Depression Visibility Wind Speed Wind Dir Waves Ship Positions

Sumisemaru No.5

Last reported at 2016-Feb-06 21:23 UTC. Time now 2016-Feb-08 04:02 UTC.
Position N 34°55' E 140°10'.

Length 96 m; draft 6 m.

Type: Cargo ship. MMSI: 431700423.

Date/timePositionNaut miles runAvg speedWind from/ knotsBaromVisibWave heightAir tempDewpointWater temp
2016-Feb-06 21:23N 34°55' E 140°10'  
2016-Feb-02 14:08N 35°09' E 139°45'713.1
2016-Feb-02 13:33N 35°16' E 139°45'1312.6
2016-Feb-02 12:33N 35°28' E 139°40'1 0.7
2016-Feb-02 11:33N 35°29' E 139°40'0 0.0
2016-Feb-02 10:33N 35°29' E 139°40'0 0.0
2016-Feb-02 09:33N 35°29' E 139°40'0 0.0
2016-Feb-02 08:33N 35°29' E 139°40'1 1.0
2016-Feb-02 07:33N 35°28' E 139°40'2 2.4
2016-Feb-02 06:33N 35°26' E 139°41'0 0.0
2016-Feb-02 05:33N 35°26' E 139°41'0 0.0
2016-Feb-02 04:33N 35°26' E 139°41'0 0.0
2016-Feb-02 03:33N 35°26' E 139°41'0 0.0
2016-Feb-02 02:33N 35°26' E 139°41'0 0.0
2016-Feb-02 01:33N 35°26' E 139°41'0 0.0
2016-Feb-02 00:33N 35°26' E 139°41'0 0.0
2016-Feb-01 23:33N 35°26' E 139°41'1 0.8
2016-Feb-01 22:33N 35°25' E 139°42'5 5.0
2016-Feb-01 21:33N 35°20' E 139°43'36 7.0
2016-Feb-01 16:24N 34°52' E 140°10'  

Dump ship's entire track history